CheckWX is a tool to help pilots better visualize weather data.  It is not intended as a substitute for an official pre-flight weather briefing.

06:46:06 UTC

KODO METAR
Odessa-Schlemeyer Field Airport
Odessa, Texas, USA
Current

53 mins ago

KODO 210553Z AUTO 33019G26KT 8SM OVC065 18/05 A2960 RMK AO2 PK WND 30031/0527 PRESRR SLP978 60085 T01780050 10267 20150 403220150 53009 $
Observed
May-21 @ 05:53 UTC
Wind
  • 330° at 19 KTS
  • Gusting to 26 KTS
Visibility
8 SM
Flight Rules
VFR
Cloud Levels
  • Overcast at 6,500' AGL
Temperature
18°C / 64°F
Dewpoint
C / 41°F
Humidity
43%
Altimeter
29.6" Hg
Pressure
1002.42 hPa
Previous

2 hours ago

KODO 210453Z AUTO 29015KT 10SM SCT055 17/13 A2953 RMK AO2 LTG DSNT NE-S TSE0355 SLP956 T01720128 $
Observed
May-21 @ 04:53 UTC
Wind
  • 290° at 15 KTS
Visibility
10 SM
Flight Rules
VFR
Cloud Levels
  • Scattered at 5,500' AGL
Temperature
17°C / 63°F
Dewpoint
13°C / 55°F
Humidity
77%
Altimeter
29.53" Hg
Pressure
1000.02 hPa
Previous

3 hours ago

KODO 210411Z AUTO 28010KT 9SM FEW090 18/14 A2954 RMK AO2 LTG DSNT NE-SE TSE0355 T01780144 $
Observed
May-21 @ 04:11 UTC
Wind
  • 280° at 10 KTS
Visibility
9 SM
Flight Rules
VFR
Cloud Levels
  • Few at 9,000' AGL
Temperature
18°C / 64°F
Dewpoint
14°C / 57°F
Humidity
78%
Altimeter
29.54" Hg
Pressure
1000.32 hPa